Murray, Nebraska
Current Conditions -  °F | °C
As of 7:15 AM on Thursday 23 Oct 2014 (Local Time) from KPMV Reporting Station
Haze Haze  
Wind Chill: 59°   Ceiling: 900
Heat Index: 59°   Visibility: 5mi
Dew Point: 57°   Wind: 5mph
Humidity: 94%   Direction: 210°SSW
Pressure: 30.04"   Gusts: NA
Location:  40.92°N, 95.93°W
Report Text: KPMV 231215Z AUTO 21004KT 5SM BR BKN009 BKN016 BKN021 15/14 A3004 RMK AO2 T01500140
Loading
Personal Weather Stations






























Interactive Weather Map
Tropical Storm Tracking
New forecast layout! Learn more

10-Day Weather Forecast

Advertisements
Track Severe Weather on mobile